sensor_id;sensor_type;location;lat;lon;timestamp;pressure;altitude;pressure_sealevel;temperature;humidity
74329;BME280;62749;51.982;5.916;2022-08-21T00:00:14;101577.31;;;16.85;72.96
74329;BME280;62749;51.982;5.916;2022-08-21T00:02:50;101571.63;;;16.59;74.06
74329;BME280;62749;51.982;5.916;2022-08-21T00:05:22;101572.22;;;16.48;74.45
74329;BME280;62749;51.982;5.916;2022-08-21T00:07:53;101566.47;;;16.56;74.08
74329;BME280;62749;51.982;5.916;2022-08-21T00:10:25;101567.34;;;16.56;74.38
74329;BME280;62749;51.982;5.916;2022-08-21T00:12:57;101566.44;;;16.40;74.47
74329;BME280;62749;51.982;5.916;2022-08-21T00:15:31;101568.16;;;16.41;74.73
74329;BME280;62749;51.982;5.916;2022-08-21T00:18:05;101565.81;;;16.35;74.59
74329;BME280;62749;51.982;5.916;2022-08-21T00:20:38;101570.06;;;16.39;74.57
74329;BME280;62749;51.982;5.916;2022-08-21T00:23:10;101566.59;;;16.37;74.68
74329;BME280;62749;51.982;5.916;2022-08-21T00:25:42;101557.09;;;16.49;74.27
74329;BME280;62749;51.982;5.916;2022-08-21T00:28:16;101558.56;;;16.54;74.11
74329;BME280;62749;51.982;5.916;2022-08-21T00:30:48;101558.47;;;16.56;74.07
74329;BME280;62749;51.982;5.916;2022-08-21T00:33:18;101562.06;;;16.55;73.88
74329;BME280;62749;51.982;5.916;2022-08-21T00:35:48;101577.59;;;16.80;73.00
74329;BME280;62749;51.982;5.916;2022-08-21T00:38:18;101564.41;;;16.45;74.33
74329;BME280;62749;51.982;5.916;2022-08-21T00:40:52;101564.94;;;16.52;74.39
74329;BME280;62749;51.982;5.916;2022-08-21T00:43:29;101561.28;;;16.37;74.99
74329;BME280;62749;51.982;5.916;2022-08-21T00:46:03;101562.22;;;16.36;75.00
74329;BME280;62749;51.982;5.916;2022-08-21T00:48:34;101564.84;;;16.20;75.72
74329;BME280;62749;51.982;5.916;2022-08-21T00:51:07;101559.81;;;16.31;75.54
74329;BME280;62749;51.982;5.916;2022-08-21T00:53:44;101558.31;;;16.25;75.54
74329;BME280;62749;51.982;5.916;2022-08-21T00:56:15;101557.59;;;16.87;72.93
74329;BME280;62749;51.982;5.916;2022-08-21T00:58:48;101555.09;;;16.52;74.27
74329;BME280;62749;51.982;5.916;2022-08-21T01:01:19;101561.16;;;17.04;72.30
74329;BME280;62749;51.982;5.916;2022-08-21T01:03:49;101558.19;;;16.61;73.29
74329;BME280;62749;51.982;5.916;2022-08-21T01:06:20;101555.91;;;16.21;75.09
74329;BME280;62749;51.982;5.916;2022-08-21T01:08:50;101557.69;;;16.20;75.06
74329;BME280;62749;51.982;5.916;2022-08-21T01:11:20;101546.44;;;16.15;75.01
74329;BME280;62749;51.982;5.916;2022-08-21T01:13:53;101544.81;;;16.13;75.03
74329;BME280;62749;51.982;5.916;2022-08-21T01:16:24;101551.66;;;16.01;75.62
74329;BME280;62749;51.982;5.916;2022-08-21T01:18:55;101554.47;;;16.31;73.99
74329;BME280;62749;51.982;5.916;2022-08-21T01:21:27;101554.84;;;16.41;73.51
74329;BME280;62749;51.982;5.916;2022-08-21T01:23:57;101547.72;;;16.90;71.37
74329;BME280;62749;51.982;5.916;2022-08-21T01:26:30;101558.31;;;16.25;74.23
74329;BME280;62749;51.982;5.916;2022-08-21T01:29:09;101556.13;;;16.00;74.81
74329;BME280;62749;51.982;5.916;2022-08-21T01:31:44;101558.59;;;16.21;74.07
74329;BME280;62749;51.982;5.916;2022-08-21T01:34:14;101555.00;;;16.04;74.24
74329;BME280;62749;51.982;5.916;2022-08-21T01:36:48;101550.38;;;16.08;74.80
74329;BME280;62749;51.982;5.916;2022-08-21T01:39:18;101555.09;;;15.85;75.52
74329;BME280;62749;51.982;5.916;2022-08-21T01:41:49;101556.66;;;16.07;74.47
74329;BME280;62749;51.982;5.916;2022-08-21T01:44:20;101556.66;;;15.72;75.95
74329;BME280;62749;51.982;5.916;2022-08-21T01:46:51;101554.97;;;15.88;75.67
74329;BME280;62749;51.982;5.916;2022-08-21T01:49:22;101555.09;;;15.85;75.46
74329;BME280;62749;51.982;5.916;2022-08-21T01:51:54;101560.56;;;16.00;74.70
74329;BME280;62749;51.982;5.916;2022-08-21T01:54:25;101553.38;;;16.02;74.67
74329;BME280;62749;51.982;5.916;2022-08-21T01:56:56;101556.34;;;15.95;75.16
74329;BME280;62749;51.982;5.916;2022-08-21T01:59:29;101555.06;;;15.87;75.37
74329;BME280;62749;51.982;5.916;2022-08-21T02:01:59;101546.28;;;15.85;75.72
74329;BME280;62749;51.982;5.916;2022-08-21T02:04:29;101546.53;;;15.78;75.94
74329;BME280;62749;51.982;5.916;2022-08-21T02:07:03;101541.53;;;16.07;74.97
74329;BME280;62749;51.982;5.916;2022-08-21T02:09:33;101539.94;;;16.03;74.89
74329;BME280;62749;51.982;5.916;2022-08-21T02:12:03;101540.94;;;15.85;75.64
74329;BME280;62749;51.982;5.916;2022-08-21T02:14:34;101535.97;;;15.94;75.41
74329;BME280;62749;51.982;5.916;2022-08-21T02:17:04;101538.78;;;15.74;75.89
74329;BME280;62749;51.982;5.916;2022-08-21T02:19:35;101542.09;;;15.79;76.12
74329;BME280;62749;51.982;5.916;2022-08-21T02:22:09;101532.22;;;15.81;75.81
74329;BME280;62749;51.982;5.916;2022-08-21T02:24:40;101535.44;;;15.70;76.27
74329;BME280;62749;51.982;5.916;2022-08-21T02:27:10;101527.28;;;15.73;76.28
74329;BME280;62749;51.982;5.916;2022-08-21T02:29:40;101530.81;;;15.74;76.34
74329;BME280;62749;51.982;5.916;2022-08-21T02:32:10;101534.78;;;15.83;75.73
74329;BME280;62749;51.982;5.916;2022-08-21T02:34:40;101529.88;;;15.75;76.05
74329;BME280;62749;51.982;5.916;2022-08-21T02:37:14;101526.09;;;15.79;75.90
74329;BME280;62749;51.982;5.916;2022-08-21T02:39:44;101522.19;;;16.04;74.79
74329;BME280;62749;51.982;5.916;2022-08-21T02:42:14;101525.38;;;15.75;76.19
74329;BME280;62749;51.982;5.916;2022-08-21T02:44:44;101528.16;;;15.91;75.36
74329;BME280;62749;51.982;5.916;2022-08-21T02:47:14;101531.19;;;15.66;76.49
74329;BME280;62749;51.982;5.916;2022-08-21T02:49:44;101528.00;;;15.59;76.63
74329;BME280;62749;51.982;5.916;2022-08-21T02:52:17;101517.50;;;15.56;76.63
74329;BME280;62749;51.982;5.916;2022-08-21T02:54:48;101524.28;;;15.79;76.02
74329;BME280;62749;51.982;5.916;2022-08-21T02:57:18;101521.56;;;15.99;75.30
74329;BME280;62749;51.982;5.916;2022-08-21T02:59:48;101513.72;;;15.78;75.72
74329;BME280;62749;51.982;5.916;2022-08-21T03:02:18;101519.66;;;15.83;75.59
74329;BME280;62749;51.982;5.916;2022-08-21T03:04:48;101518.19;;;15.95;74.98
74329;BME280;62749;51.982;5.916;2022-08-21T03:07:20;101514.13;;;15.70;75.99
74329;BME280;62749;51.982;5.916;2022-08-21T03:09:50;101522.59;;;15.96;75.34
74329;BME280;62749;51.982;5.916;2022-08-21T03:12:20;101520.84;;;16.29;73.98
74329;BME280;62749;51.982;5.916;2022-08-21T03:14:50;101518.28;;;16.75;72.38
74329;BME280;62749;51.982;5.916;2022-08-21T03:17:20;101517.00;;;16.50;72.93
74329;BME280;62749;51.982;5.916;2022-08-21T03:19:50;101513.81;;;16.44;73.11
74329;BME280;62749;51.982;5.916;2022-08-21T03:22:23;101503.81;;;16.47;72.76
74329;BME280;62749;51.982;5.916;2022-08-21T03:24:53;101509.00;;;16.50;73.08
74329;BME280;62749;51.982;5.916;2022-08-21T03:27:23;101514.13;;;15.70;75.51
74329;BME280;62749;51.982;5.916;2022-08-21T03:29:54;101504.56;;;15.66;76.06
74329;BME280;62749;51.982;5.916;2022-08-21T03:32:25;101507.25;;;15.31;77.26
74329;BME280;62749;51.982;5.916;2022-08-21T03:34:55;101512.88;;;15.25;77.73
74329;BME280;62749;51.982;5.916;2022-08-21T03:37:29;101510.88;;;15.47;77.02
74329;BME280;62749;51.982;5.916;2022-08-21T03:39:59;101505.84;;;15.41;76.77
74329;BME280;62749;51.982;5.916;2022-08-21T03:42:29;101512.00;;;15.59;76.40
74329;BME280;62749;51.982;5.916;2022-08-21T03:44:59;101513.13;;;15.55;76.12
74329;BME280;62749;51.982;5.916;2022-08-21T03:47:29;101510.31;;;15.41;76.62
74329;BME280;62749;51.982;5.916;2022-08-21T03:49:59;101506.78;;;15.23;77.27
74329;BME280;62749;51.982;5.916;2022-08-21T03:52:32;101511.56;;;15.51;76.25
74329;BME280;62749;51.982;5.916;2022-08-21T03:55:03;101503.34;;;15.21;77.23
74329;BME280;62749;51.982;5.916;2022-08-21T03:57:33;101500.28;;;15.11;78.09
74329;BME280;62749;51.982;5.916;2022-08-21T04:00:04;101507.63;;;15.23;77.15
74329;BME280;62749;51.982;5.916;2022-08-21T04:02:39;101508.56;;;15.22;77.47
74329;BME280;62749;51.982;5.916;2022-08-21T04:05:11;101512.19;;;15.39;76.56
74329;BME280;62749;51.982;5.916;2022-08-21T04:07:59;101502.38;;;15.04;78.16
74329;BME280;62749;51.982;5.916;2022-08-21T04:10:35;101505.34;;;15.15;77.51
74329;BME280;62749;51.982;5.916;2022-08-21T04:13:07;101510.91;;;15.11;77.67
74329;BME280;62749;51.982;5.916;2022-08-21T04:15:37;101505.81;;;15.06;77.94
74329;BME280;62749;51.982;5.916;2022-08-21T04:18:07;101502.94;;;15.11;77.51
74329;BME280;62749;51.982;5.916;2022-08-21T04:20:38;101491.34;;;15.12;77.92
74329;BME280;62749;51.982;5.916;2022-08-21T04:23:12;101486.56;;;15.01;78.08
74329;BME280;62749;51.982;5.916;2022-08-21T04:25:42;101491.97;;;15.17;77.86
74329;BME280;62749;51.982;5.916;2022-08-21T04:28:13;101490.47;;;16.15;73.81
74329;BME280;62749;51.982;5.916;2022-08-21T04:30:43;101496.44;;;15.16;77.13
74329;BME280;62749;51.982;5.916;2022-08-21T04:33:14;101492.13;;;15.67;76.01
74329;BME280;62749;51.982;5.916;2022-08-21T04:35:44;101498.75;;;15.93;74.30
74329;BME280;62749;51.982;5.916;2022-08-21T04:38:17;101497.59;;;16.15;73.58
74329;BME280;62749;51.982;5.916;2022-08-21T04:40:49;101498.72;;;16.10;73.93
74329;BME280;62749;51.982;5.916;2022-08-21T04:43:20;101502.78;;;16.34;72.97
74329;BME280;62749;51.982;5.916;2022-08-21T04:45:52;101496.81;;;15.61;75.17
74329;BME280;62749;51.982;5.916;2022-08-21T04:48:23;101497.41;;;15.84;75.27
74329;BME280;62749;51.982;5.916;2022-08-21T04:50:59;101488.84;;;16.29;73.38
74329;BME280;62749;51.982;5.916;2022-08-21T04:53:38;101489.63;;;16.31;73.31
74329;BME280;62749;51.982;5.916;2022-08-21T04:56:19;101501.25;;;16.62;72.43
74329;BME280;62749;51.982;5.916;2022-08-21T04:58:56;101500.97;;;16.50;71.98
74329;BME280;62749;51.982;5.916;2022-08-21T05:01:34;101507.16;;;16.19;73.00
74329;BME280;62749;51.982;5.916;2022-08-21T05:04:10;101496.63;;;16.00;74.18
74329;BME280;62749;51.982;5.916;2022-08-21T05:06:46;101508.47;;;16.28;72.95
74329;BME280;62749;51.982;5.916;2022-08-21T05:09:22;101505.88;;;16.26;72.53
74329;BME280;62749;51.982;5.916;2022-08-21T05:11:54;101504.44;;;16.52;71.86
74329;BME280;62749;51.982;5.916;2022-08-21T05:14:25;101507.34;;;16.32;72.56
74329;BME280;62749;51.982;5.916;2022-08-21T05:16:55;101512.69;;;16.48;72.17
74329;BME280;62749;51.982;5.916;2022-08-21T05:19:25;101517.16;;;16.47;72.37
74329;BME280;62749;51.982;5.916;2022-08-21T05:21:55;101513.72;;;15.95;74.28
74329;BME280;62749;51.982;5.916;2022-08-21T05:24:28;101520.81;;;16.13;73.91
74329;BME280;62749;51.982;5.916;2022-08-21T05:26:58;101521.22;;;16.70;71.61
74329;BME280;62749;51.982;5.916;2022-08-21T05:29:28;101516.13;;;16.66;71.40
74329;BME280;62749;51.982;5.916;2022-08-21T05:31:58;101524.06;;;16.83;70.94
74329;BME280;62749;51.982;5.916;2022-08-21T05:34:28;101528.34;;;17.02;70.38
74329;BME280;62749;51.982;5.916;2022-08-21T05:36:58;101530.97;;;17.04;70.58
74329;BME280;62749;51.982;5.916;2022-08-21T05:39:31;101530.97;;;16.22;73.84
74329;BME280;62749;51.982;5.916;2022-08-21T05:42:01;101529.97;;;15.56;77.21
74329;BME280;62749;51.982;5.916;2022-08-21T05:44:31;101529.03;;;15.57;77.52
74329;BME280;62749;51.982;5.916;2022-08-21T05:47:39;101530.63;;;15.94;76.38
74329;BME280;62749;51.982;5.916;2022-08-21T05:50:18;101532.97;;;15.83;76.17
74329;BME280;62749;51.982;5.916;2022-08-21T05:52:48;101534.19;;;16.29;74.74
74329;BME280;62749;51.982;5.916;2022-08-21T05:55:21;101532.28;;;15.79;77.22
74329;BME280;62749;51.982;5.916;2022-08-21T05:57:51;101539.44;;;15.79;76.28
74329;BME280;62749;51.982;5.916;2022-08-21T06:00:21;101535.97;;;15.59;76.99
74329;BME280;62749;51.982;5.916;2022-08-21T06:02:52;101530.25;;;15.49;77.05
74329;BME280;62749;51.982;5.916;2022-08-21T06:05:22;101529.31;;;15.50;76.81
74329;BME280;62749;51.982;5.916;2022-08-21T06:07:52;101528.31;;;15.53;76.95
74329;BME280;62749;51.982;5.916;2022-08-21T06:10:25;101526.34;;;15.74;76.32
74329;BME280;62749;51.982;5.916;2022-08-21T06:12:55;101526.97;;;15.79;76.68
74329;BME280;62749;51.982;5.916;2022-08-21T06:15:25;101515.84;;;15.89;76.65
74329;BME280;62749;51.982;5.916;2022-08-21T06:17:55;101517.75;;;15.87;76.98
74329;BME280;62749;51.982;5.916;2022-08-21T06:20:26;101525.31;;;15.94;76.50
74329;BME280;62749;51.982;5.916;2022-08-21T06:22:56;101519.66;;;16.01;76.73
74329;BME280;62749;51.982;5.916;2022-08-21T06:25:29;101527.34;;;16.07;76.12
74329;BME280;62749;51.982;5.916;2022-08-21T06:28:01;101528.47;;;16.19;75.70
74329;BME280;62749;51.982;5.916;2022-08-21T06:30:32;101530.31;;;16.01;75.68
74329;BME280;62749;51.982;5.916;2022-08-21T06:33:04;101519.50;;;16.04;76.19
74329;BME280;62749;51.982;5.916;2022-08-21T06:35:35;101526.59;;;15.87;75.88
74329;BME280;62749;51.982;5.916;2022-08-21T06:38:05;101524.97;;;15.85;76.97
74329;BME280;62749;51.982;5.916;2022-08-21T06:40:38;101527.13;;;15.94;76.44
74329;BME280;62749;51.982;5.916;2022-08-21T06:43:11;101523.31;;;16.16;76.64
74329;BME280;62749;51.982;5.916;2022-08-21T06:45:44;101535.63;;;16.18;75.80
74329;BME280;62749;51.982;5.916;2022-08-21T06:48:15;101536.81;;;16.13;76.25
74329;BME280;62749;51.982;5.916;2022-08-21T06:50:46;101531.31;;;16.16;76.38
74329;BME280;62749;51.982;5.916;2022-08-21T06:53:18;101534.56;;;16.54;75.21
74329;BME280;62749;51.982;5.916;2022-08-21T06:55:52;101523.44;;;16.46;75.38
74329;BME280;62749;51.982;5.916;2022-08-21T06:58:22;101525.59;;;16.55;74.92
74329;BME280;62749;51.982;5.916;2022-08-21T07:00:52;101528.16;;;16.73;74.16
74329;BME280;62749;51.982;5.916;2022-08-21T07:03:27;101538.09;;;16.71;74.99
74329;BME280;62749;51.982;5.916;2022-08-21T07:05:59;101524.66;;;16.72;74.50
74329;BME280;62749;51.982;5.916;2022-08-21T07:08:29;101529.13;;;16.56;74.53
74329;BME280;62749;51.982;5.916;2022-08-21T07:11:06;101539.03;;;16.86;74.07
74329;BME280;62749;51.982;5.916;2022-08-21T07:13:39;101535.41;;;16.87;74.43
74329;BME280;62749;51.982;5.916;2022-08-21T07:16:09;101531.13;;;16.84;74.16
74329;BME280;62749;51.982;5.916;2022-08-21T07:18:39;101535.69;;;16.98;74.12
74329;BME280;62749;51.982;5.916;2022-08-21T07:21:10;101528.47;;;17.00;74.15
74329;BME280;62749;51.982;5.916;2022-08-21T07:23:45;101527.63;;;17.14;73.75
74329;BME280;62749;51.982;5.916;2022-08-21T07:26:21;101526.28;;;17.07;74.45
74329;BME280;62749;51.982;5.916;2022-08-21T07:28:55;101528.56;;;17.29;73.46
74329;BME280;62749;51.982;5.916;2022-08-21T07:31:26;101519.19;;;17.22;73.63
74329;BME280;62749;51.982;5.916;2022-08-21T07:33:57;101523.63;;;17.38;73.29
74329;BME280;62749;51.982;5.916;2022-08-21T07:36:27;101528.84;;;17.55;73.36
74329;BME280;62749;51.982;5.916;2022-08-21T07:38:57;101518.91;;;17.57;73.03
74329;BME280;62749;51.982;5.916;2022-08-21T07:41:30;101524.81;;;18.22;71.59
74329;BME280;62749;51.982;5.916;2022-08-21T07:44:01;101517.16;;;18.01;71.65
74329;BME280;62749;51.982;5.916;2022-08-21T07:46:31;101522.25;;;18.06;72.21
74329;BME280;62749;51.982;5.916;2022-08-21T07:49:01;101522.31;;;18.04;71.79
74329;BME280;62749;51.982;5.916;2022-08-21T07:51:33;101520.19;;;17.95;71.74
74329;BME280;62749;51.982;5.916;2022-08-21T07:54:05;101512.69;;;18.31;70.90
74329;BME280;62749;51.982;5.916;2022-08-21T07:56:41;101517.28;;;18.70;70.80
74329;BME280;62749;51.982;5.916;2022-08-21T07:59:11;101517.19;;;19.27;67.86
74329;BME280;62749;51.982;5.916;2022-08-21T08:01:40;101519.44;;;18.51;70.37
74329;BME280;62749;51.982;5.916;2022-08-21T08:04:10;101509.69;;;18.50;71.65
74329;BME280;62749;51.982;5.916;2022-08-21T08:06:41;101516.19;;;18.73;71.14
74329;BME280;62749;51.982;5.916;2022-08-21T08:09:12;101522.94;;;18.51;71.51
74329;BME280;62749;51.982;5.916;2022-08-21T08:11:45;101519.03;;;18.43;72.47
74329;BME280;62749;51.982;5.916;2022-08-21T08:14:15;101520.56;;;18.61;71.89
74329;BME280;62749;51.982;5.916;2022-08-21T08:16:45;101523.03;;;18.92;70.32
74329;BME280;62749;51.982;5.916;2022-08-21T08:19:15;101516.78;;;18.78;71.25
74329;BME280;62749;51.982;5.916;2022-08-21T08:21:45;101506.59;;;18.56;71.75
74329;BME280;62749;51.982;5.916;2022-08-21T08:24:16;101510.72;;;19.16;70.76
74329;BME280;62749;51.982;5.916;2022-08-21T08:26:48;101514.00;;;19.60;69.60
74329;BME280;62749;51.982;5.916;2022-08-21T08:29:20;101513.38;;;19.57;69.35
74329;BME280;62749;51.982;5.916;2022-08-21T08:31:51;101511.66;;;20.20;67.68
74329;BME280;62749;51.982;5.916;2022-08-21T08:34:21;101513.09;;;20.50;66.20
74329;BME280;62749;51.982;5.916;2022-08-21T08:36:51;101500.91;;;21.19;64.36
74329;BME280;62749;51.982;5.916;2022-08-21T08:39:21;101506.59;;;21.39;63.45
74329;BME280;62749;51.982;5.916;2022-08-21T08:41:58;101501.13;;;20.80;64.55
74329;BME280;62749;51.982;5.916;2022-08-21T08:44:36;101499.19;;;20.45;65.63
74329;BME280;62749;51.982;5.916;2022-08-21T08:47:09;101505.03;;;21.12;64.35
74329;BME280;62749;51.982;5.916;2022-08-21T08:49:56;101495.44;;;22.36;59.91
74329;BME280;62749;51.982;5.916;2022-08-21T08:52:36;101499.59;;;22.40;59.85
74329;BME280;62749;51.982;5.916;2022-08-21T08:55:17;101496.56;;;21.88;61.07
74329;BME280;62749;51.982;5.916;2022-08-21T08:57:53;101499.25;;;22.89;57.95
74329;BME280;62749;51.982;5.916;2022-08-21T09:00:24;101501.81;;;22.90;57.85
74329;BME280;62749;51.982;5.916;2022-08-21T09:02:57;101507.63;;;23.07;56.22
74329;BME280;62749;51.982;5.916;2022-08-21T09:05:36;101501.56;;;24.30;53.50
74329;BME280;62749;51.982;5.916;2022-08-21T09:08:27;101492.22;;;23.72;54.07
74329;BME280;62749;51.982;5.916;2022-08-21T09:11:25;101501.94;;;23.21;54.96
74329;BME280;62749;51.982;5.916;2022-08-21T09:14:12;101501.41;;;25.02;52.05
74329;BME280;62749;51.982;5.916;2022-08-21T09:16:59;101493.22;;;23.50;55.48
74329;BME280;62749;51.982;5.916;2022-08-21T09:19:56;101491.91;;;23.66;54.18
74329;BME280;62749;51.982;5.916;2022-08-21T09:22:43;101502.47;;;21.57;58.02
74329;BME280;62749;51.982;5.916;2022-08-21T09:25:25;101491.34;;;20.79;60.50
74329;BME280;62749;51.982;5.916;2022-08-21T09:27:57;101489.06;;;21.10;60.69
74329;BME280;62749;51.982;5.916;2022-08-21T09:30:32;101492.50;;;23.48;55.80
74329;BME280;62749;51.982;5.916;2022-08-21T09:33:02;101486.28;;;23.57;53.98
74329;BME280;62749;51.982;5.916;2022-08-21T09:35:33;101477.47;;;22.02;55.39
74329;BME280;62749;51.982;5.916;2022-08-21T09:38:05;101484.34;;;21.95;57.83
74329;BME280;62749;51.982;5.916;2022-08-21T09:40:39;101480.03;;;22.27;54.96
74329;BME280;62749;51.982;5.916;2022-08-21T09:43:17;101486.53;;;22.24;56.69
74329;BME280;62749;51.982;5.916;2022-08-21T09:46:06;101485.34;;;23.05;53.84
74329;BME280;62749;51.982;5.916;2022-08-21T09:48:42;101491.28;;;21.75;57.90
74329;BME280;62749;51.982;5.916;2022-08-21T09:51:18;101487.66;;;23.73;53.03
74329;BME280;62749;51.982;5.916;2022-08-21T09:53:54;101488.88;;;24.72;50.69
74329;BME280;62749;51.982;5.916;2022-08-21T09:56:33;101485.97;;;26.37;45.91
74329;BME280;62749;51.982;5.916;2022-08-21T09:59:25;101498.44;;;25.15;46.16
74329;BME280;62749;51.982;5.916;2022-08-21T10:02:25;101495.13;;;25.11;47.09
74329;BME280;62749;51.982;5.916;2022-08-21T10:04:58;101491.75;;;23.67;50.18
74329;BME280;62749;51.982;5.916;2022-08-21T10:07:32;101495.53;;;24.58;50.18
74329;BME280;62749;51.982;5.916;2022-08-21T10:10:13;101491.91;;;23.23;51.83
74329;BME280;62749;51.982;5.916;2022-08-21T10:12:51;101499.94;;;22.58;52.32
74329;BME280;62749;51.982;5.916;2022-08-21T10:15:39;101497.91;;;22.05;54.79
74329;BME280;62749;51.982;5.916;2022-08-21T10:18:30;101486.66;;;22.45;52.89
74329;BME280;62749;51.982;5.916;2022-08-21T10:21:15;101493.72;;;24.17;49.12
74329;BME280;62749;51.982;5.916;2022-08-21T10:24:01;101492.00;;;24.16;48.76
74329;BME280;62749;51.982;5.916;2022-08-21T10:26:53;101485.75;;;24.76;48.53
74329;BME280;62749;51.982;5.916;2022-08-21T10:29:50;101484.31;;;25.21;45.95
74329;BME280;62749;51.982;5.916;2022-08-21T10:32:41;101482.34;;;24.84;47.49
74329;BME280;62749;51.982;5.916;2022-08-21T10:35:35;101482.63;;;23.58;49.83
74329;BME280;62749;51.982;5.916;2022-08-21T10:38:45;101477.91;;;22.64;51.59
74329;BME280;62749;51.982;5.916;2022-08-21T10:42:06;101473.81;;;23.14;50.61
74329;BME280;62749;51.982;5.916;2022-08-21T10:44:59;101478.69;;;22.44;52.76
74329;BME280;62749;51.982;5.916;2022-08-21T10:47:46;101477.81;;;23.93;49.31
74329;BME280;62749;51.982;5.916;2022-08-21T10:50:28;101478.66;;;24.75;46.21
74329;BME280;62749;51.982;5.916;2022-08-21T10:53:23;101477.84;;;24.24;46.54
74329;BME280;62749;51.982;5.916;2022-08-21T10:56:16;101479.34;;;25.26;45.35
74329;BME280;62749;51.982;5.916;2022-08-21T10:59:02;101484.56;;;25.67;44.76
74329;BME280;62749;51.982;5.916;2022-08-21T11:01:51;101487.19;;;24.80;46.27
74329;BME280;62749;51.982;5.916;2022-08-21T11:04:32;101485.50;;;23.88;47.89
74329;BME280;62749;51.982;5.916;2022-08-21T11:07:18;101487.25;;;24.49;46.74
74329;BME280;62749;51.982;5.916;2022-08-21T11:09:55;101477.59;;;24.66;44.64
74329;BME280;62749;51.982;5.916;2022-08-21T11:12:35;101481.13;;;25.65;43.94
74329;BME280;62749;51.982;5.916;2022-08-21T11:15:25;101476.66;;;24.77;45.51
74329;BME280;62749;51.982;5.916;2022-08-21T11:18:12;101485.19;;;25.12;46.53
74329;BME280;62749;51.982;5.916;2022-08-21T11:20:59;101485.16;;;25.32;44.32
74329;BME280;62749;51.982;5.916;2022-08-21T11:23:44;101479.59;;;24.55;45.39
74329;BME280;62749;51.982;5.916;2022-08-21T11:26:34;101474.75;;;23.98;47.90
74329;BME280;62749;51.982;5.916;2022-08-21T11:29:13;101478.22;;;22.82;48.00
74329;BME280;62749;51.982;5.916;2022-08-21T11:35:12;101466.56;;;24.70;45.22
74329;BME280;62749;51.982;5.916;2022-08-21T11:38:06;101461.31;;;24.78;44.37
74329;BME280;62749;51.982;5.916;2022-08-21T11:41:06;101468.56;;;23.55;46.62
74329;BME280;62749;51.982;5.916;2022-08-21T11:43:46;101455.06;;;24.87;44.21
74329;BME280;62749;51.982;5.916;2022-08-21T11:46:28;101464.84;;;25.18;43.49
74329;BME280;62749;51.982;5.916;2022-08-21T11:52:22;101450.94;;;26.36;40.89
74329;BME280;62749;51.982;5.916;2022-08-21T11:54:59;101452.34;;;26.40;40.38
74329;BME280;62749;51.982;5.916;2022-08-21T11:57:46;101451.50;;;25.73;40.74
74329;BME280;62749;51.982;5.916;2022-08-21T12:00:28;101448.78;;;26.75;40.21
74329;BME280;62749;51.982;5.916;2022-08-21T12:03:09;101443.16;;;27.58;37.79
74329;BME280;62749;51.982;5.916;2022-08-21T12:05:53;101457.53;;;27.32;39.58
74329;BME280;62749;51.982;5.916;2022-08-21T12:08:29;101452.78;;;28.97;36.34
74329;BME280;62749;51.982;5.916;2022-08-21T12:11:08;101460.22;;;27.76;37.92
74329;BME280;62749;51.982;5.916;2022-08-21T12:13:58;101462.94;;;26.51;39.49
74329;BME280;62749;51.982;5.916;2022-08-21T12:16:31;101465.66;;;26.69;39.96
74329;BME280;62749;51.982;5.916;2022-08-21T12:19:05;101465.31;;;24.23;44.36
74329;BME280;62749;51.982;5.916;2022-08-21T12:21:49;101460.06;;;25.97;41.34
74329;BME280;62749;51.982;5.916;2022-08-21T12:24:35;101463.84;;;24.99;41.61
74329;BME280;62749;51.982;5.916;2022-08-21T12:27:22;101458.34;;;26.33;40.87
74329;BME280;62749;51.982;5.916;2022-08-21T12:30:04;101462.59;;;27.45;37.68
74329;BME280;62749;51.982;5.916;2022-08-21T12:32:58;101464.69;;;25.49;42.85
74329;BME280;62749;51.982;5.916;2022-08-21T12:35:35;101464.56;;;25.01;43.10
74329;BME280;62749;51.982;5.916;2022-08-21T12:38:16;101469.00;;;27.17;37.93
74329;BME280;62749;51.982;5.916;2022-08-21T12:40:54;101460.94;;;28.72;36.11
74329;BME280;62749;51.982;5.916;2022-08-21T12:43:33;101462.72;;;26.99;38.75
74329;BME280;62749;51.982;5.916;2022-08-21T12:46:15;101459.03;;;27.79;36.59
74329;BME280;62749;51.982;5.916;2022-08-21T12:48:52;101464.22;;;28.50;35.35
74329;BME280;62749;51.982;5.916;2022-08-21T12:51:33;101453.13;;;27.31;37.53
74329;BME280;62749;51.982;5.916;2022-08-21T12:54:23;101449.31;;;26.61;37.88
74329;BME280;62749;51.982;5.916;2022-08-21T12:56:57;101463.13;;;27.04;38.77
74329;BME280;62749;51.982;5.916;2022-08-21T12:59:30;101454.75;;;27.15;36.79
74329;BME280;62749;51.982;5.916;2022-08-21T13:02:12;101458.78;;;28.33;34.91
74329;BME280;62749;51.982;5.916;2022-08-21T13:04:48;101459.59;;;26.39;37.37
74329;BME280;62749;51.982;5.916;2022-08-21T13:07:28;101454.34;;;26.74;37.63
74329;BME280;62749;51.982;5.916;2022-08-21T13:10:06;101457.38;;;26.71;36.96
74329;BME280;62749;51.982;5.916;2022-08-21T13:12:46;101457.53;;;27.50;35.86
74329;BME280;62749;51.982;5.916;2022-08-21T13:15:25;101457.34;;;29.30;33.75
74329;BME280;62749;51.982;5.916;2022-08-21T13:18:02;101457.34;;;27.78;35.40
74329;BME280;62749;51.982;5.916;2022-08-21T13:20:36;101464.97;;;27.03;35.43
74329;BME280;62749;51.982;5.916;2022-08-21T13:23:22;101461.16;;;27.14;36.29
74329;BME280;62749;51.982;5.916;2022-08-21T13:25:55;101454.81;;;26.33;37.17
74329;BME280;62749;51.982;5.916;2022-08-21T13:28:34;101456.13;;;26.47;36.51
74329;BME280;62749;51.982;5.916;2022-08-21T13:31:08;101466.22;;;25.89;37.92
74329;BME280;62749;51.982;5.916;2022-08-21T13:33:42;101465.88;;;26.40;36.51
74329;BME280;62749;51.982;5.916;2022-08-21T13:36:18;101459.94;;;25.98;37.73
74329;BME280;62749;51.982;5.916;2022-08-21T13:38:53;101451.56;;;25.54;38.50